createdAt,value
2019-05-22T00:02:06.978Z,74.67
2019-05-22T00:07:16.498Z,74.53
2019-05-22T00:12:25.502Z,74.42
2019-05-22T00:17:34.544Z,74.40
2019-05-22T00:22:44.208Z,74.95
2019-05-22T00:27:55.075Z,75.09
2019-05-22T00:33:03.014Z,75.38
2019-05-22T00:38:12.362Z,76.00
2019-05-22T00:43:30.331Z,76.44
2019-05-22T00:48:42.204Z,76.53
2019-05-22T00:54:09.887Z,76.74
2019-05-22T00:59:25.421Z,76.56
2019-05-22T01:04:38.708Z,76.95
2019-05-22T01:09:47.720Z,77.39
2019-05-22T01:14:55.462Z,77.33
2019-05-22T01:20:05.304Z,77.46
2019-05-22T01:25:17.555Z,77.47
2019-05-22T01:30:47.016Z,77.97
2019-05-22T01:36:21.027Z,78.19
2019-05-22T01:41:33.313Z,77.86
2019-05-22T01:46:45.826Z,77.85
2019-05-22T01:51:56.122Z,77.88
2019-05-22T01:57:05.768Z,78.16
2019-05-22T02:02:16.656Z,78.63
2019-05-22T02:07:25.623Z,78.76
2019-05-22T02:12:55.215Z,79.21
2019-05-22T02:18:07.814Z,79.42
2019-05-22T02:23:17.377Z,79.77
2019-05-22T02:28:25.487Z,79.66
2019-05-22T02:33:34.472Z,78.84
2019-05-22T02:38:42.307Z,78.60
2019-05-22T02:43:50.191Z,79.05
2019-05-22T02:48:58.860Z,79.12
2019-05-22T02:54:07.162Z,78.85
2019-05-22T02:59:15.491Z,78.58
2019-05-22T03:04:24.777Z,78.36
2019-05-22T03:09:32.361Z,78.99
2019-05-22T03:14:41.387Z,79.68
2019-05-22T03:19:50.956Z,79.38
2019-05-22T03:25:02.311Z,79.20
2019-05-22T03:30:21.855Z,78.63
2019-05-22T03:35:31.884Z,78.80
2019-05-22T03:40:39.728Z,78.59
2019-05-22T03:45:48.196Z,78.13
2019-05-22T03:51:07.379Z,78.41
2019-05-22T03:56:18.509Z,78.58
2019-05-22T04:01:26.458Z,79.27
2019-05-22T04:06:34.478Z,79.08
2019-05-22T04:11:46.768Z,79.15
2019-05-22T04:16:55.628Z,79.43
2019-05-22T04:22:03.924Z,79.02
2019-05-22T04:27:12.284Z,78.72
2019-05-22T04:32:37.647Z,79.17
2019-05-22T04:37:47.355Z,79.62
2019-05-22T04:42:56.851Z,79.79
2019-05-22T04:48:05.697Z,80.27
2019-05-22T04:53:13.842Z,80.79
2019-05-22T04:58:32.232Z,80.35
2019-05-22T05:03:39.802Z,80.33
2019-05-22T05:08:47.389Z,80.82
2019-05-22T05:13:55.531Z,80.25
2019-05-22T05:19:03.252Z,80.26
2019-05-22T05:24:11.319Z,81.00
2019-05-22T05:29:31.328Z,80.59
2019-05-22T05:34:55.781Z,80.40
2019-05-22T05:40:39.679Z,80.64
2019-05-22T05:45:51.118Z,80.68
2019-05-22T05:51:45.920Z,80.48
2019-05-22T05:56:55.614Z,80.69
2019-05-22T06:02:04.902Z,80.74
2019-05-22T06:07:29.971Z,81.22
2019-05-22T06:12:38.016Z,80.30
2019-05-22T06:18:35.019Z,80.12
2019-05-22T06:24:25.845Z,79.61
2019-05-22T06:29:55.867Z,80.26
2019-05-22T06:35:05.025Z,80.30
2019-05-22T06:40:18.801Z,80.27
2019-05-22T06:45:27.509Z,80.24
2019-05-22T06:50:35.199Z,79.98
2019-05-22T06:55:44.533Z,80.50
2019-05-22T07:00:52.282Z,80.25
2019-05-22T07:05:59.801Z,80.50
2019-05-22T07:11:07.786Z,80.02
2019-05-22T07:16:15.985Z,80.04
2019-05-22T07:21:33.705Z,80.13
2019-05-22T07:26:32.906Z,79.67
2019-05-22T07:31:41.097Z,80.17
2019-05-22T07:36:48.495Z,79.88
2019-05-22T07:41:56.147Z,80.30
2019-05-22T07:47:05.590Z,79.87
2019-05-22T07:52:13.485Z,79.88
2019-05-22T07:57:25.429Z,80.26
2019-05-22T08:02:41.276Z,80.43
2019-05-22T08:07:50.797Z,80.25
2019-05-22T08:12:59.229Z,79.85
2019-05-22T08:18:06.671Z,80.22
2019-05-22T08:23:14.344Z,80.95
2019-05-22T08:28:23.970Z,80.57
2019-05-22T08:33:32.738Z,80.09
2019-05-22T08:38:42.247Z,79.75
2019-05-22T08:44:13.554Z,79.51
2019-05-22T08:49:00.017Z,80.11
2019-05-22T08:54:09.099Z,80.33
2019-05-22T08:59:19.875Z,79.19
2019-05-22T09:04:27.109Z,79.09
2019-05-22T09:09:35.010Z,79.31
2019-05-22T09:14:43.548Z,79.81
2019-05-22T09:19:51.537Z,79.91
2019-05-22T09:25:00.190Z,80.14
2019-05-22T09:30:09.591Z,80.35
2019-05-22T09:35:18.196Z,80.00
2019-05-22T09:40:26.017Z,80.14
2019-05-22T09:45:33.610Z,79.65
2019-05-22T09:50:42.090Z,80.26
2019-05-22T09:55:50.208Z,80.02
2019-05-22T10:00:58.027Z,80.07
2019-05-22T10:06:06.188Z,80.34
2019-05-22T10:11:15.333Z,80.02
2019-05-22T10:16:22.888Z,79.91
2019-05-22T10:21:30.955Z,79.17
2019-05-22T10:26:38.514Z,78.41
2019-05-22T10:31:46.475Z,78.29
2019-05-22T10:36:54.125Z,78.72
2019-05-22T10:42:01.597Z,78.59
2019-05-22T10:47:10.049Z,78.40
2019-05-22T10:52:17.674Z,78.41
2019-05-22T10:57:25.758Z,78.21
2019-05-22T11:02:33.649Z,78.17
2019-05-22T11:07:41.843Z,77.99
2019-05-22T11:12:49.560Z,78.37
2019-05-22T11:17:58.602Z,78.09
2019-05-22T11:23:07.464Z,77.78
2019-05-22T11:28:14.929Z,78.17
2019-05-22T11:33:22.526Z,77.85
2019-05-22T11:38:30.467Z,77.49
2019-05-22T11:43:38.246Z,78.14
2019-05-22T11:48:45.602Z,77.85
2019-05-22T11:54:08.097Z,78.29
2019-05-22T11:59:02.141Z,78.30
2019-05-22T12:04:12.537Z,78.66
2019-05-22T12:09:20.186Z,78.38
2019-05-22T12:14:27.705Z,78.29
2019-05-22T12:19:35.088Z,78.34
2019-05-22T12:24:42.719Z,79.25
2019-05-22T12:29:51.419Z,79.13
2019-05-22T12:34:59.216Z,79.66
2019-05-22T12:40:09.196Z,80.20
2019-05-22T12:45:19.035Z,80.00
2019-05-22T12:50:31.927Z,80.59
2019-05-22T12:55:39.806Z,81.17
2019-05-22T13:00:48.184Z,80.33
2019-05-22T13:05:56.328Z,81.42
2019-05-22T13:11:05.518Z,80.89
2019-05-22T13:16:14.828Z,81.14
2019-05-22T13:21:26.261Z,80.84
2019-05-22T13:26:36.948Z,80.74
2019-05-22T13:31:45.893Z,79.96
2019-05-22T13:36:56.880Z,80.07
2019-05-22T13:42:03.814Z,80.87
2019-05-22T13:47:12.685Z,81.04
2019-05-22T13:52:26.993Z,81.24
2019-05-22T13:57:34.385Z,80.84
2019-05-22T14:02:42.407Z,80.87
2019-05-22T14:07:51.131Z,81.65
2019-05-22T14:12:58.964Z,81.62
2019-05-22T14:18:07.079Z,81.28
2019-05-22T14:23:16.322Z,81.46
2019-05-22T14:28:26.898Z,82.22
2019-05-22T14:33:35.043Z,81.72
2019-05-22T14:38:43.543Z,81.77
2019-05-22T14:43:50.989Z,81.46
2019-05-22T14:48:58.738Z,82.08
2019-05-22T14:54:09.416Z,82.18
2019-05-22T14:59:17.783Z,81.10
2019-05-22T15:04:28.390Z,81.36
2019-05-22T15:09:36.143Z,81.47
2019-05-22T15:14:44.470Z,81.11
2019-05-22T15:19:52.143Z,81.24
2019-05-22T15:25:00.144Z,81.00
2019-05-22T15:30:09.744Z,81.51
2019-05-22T15:35:20.201Z,82.27
2019-05-22T15:40:28.871Z,81.66
2019-05-22T15:45:37.924Z,81.44
2019-05-22T15:50:48.297Z,81.80
2019-05-22T15:55:58.268Z,82.00
2019-05-22T16:01:08.399Z,80.91
2019-05-22T16:06:18.626Z,81.90
2019-05-22T16:11:30.101Z,80.61
2019-05-22T16:16:39.236Z,81.00
2019-05-22T16:21:52.885Z,80.51
2019-05-22T16:27:01.635Z,81.39
2019-05-22T16:32:14.178Z,81.05
2019-05-22T16:37:23.155Z,81.62
2019-05-22T16:42:34.284Z,82.48
2019-05-22T16:47:42.491Z,81.28
2019-05-22T16:52:50.422Z,81.23
2019-05-22T16:57:58.014Z,81.40
2019-05-22T17:03:06.586Z,81.26
2019-05-22T17:08:16.407Z,80.46
2019-05-22T17:13:24.863Z,80.25
2019-05-22T17:18:46.623Z,80.56
2019-05-22T17:23:45.599Z,80.69
2019-05-22T17:28:53.265Z,81.37
2019-05-22T17:34:02.387Z,81.38
2019-05-22T17:39:12.900Z,80.89
2019-05-22T17:44:21.583Z,80.30
2019-05-22T17:49:30.148Z,80.38
2019-05-22T17:54:37.561Z,80.25
2019-05-22T17:59:44.952Z,80.69
2019-05-22T18:04:52.732Z,80.36
2019-05-22T18:10:00.510Z,80.14
2019-05-22T18:15:10.175Z,80.08
2019-05-22T18:20:20.001Z,79.92
2019-05-22T18:25:27.757Z,80.04
2019-05-22T18:30:38.287Z,80.64
2019-05-22T18:35:45.855Z,80.15
2019-05-22T18:40:53.172Z,80.11
2019-05-22T18:46:01.082Z,80.03
2019-05-22T18:51:09.997Z,79.90
2019-05-22T18:56:17.421Z,80.14
2019-05-22T19:01:25.006Z,79.54
2019-05-22T19:06:32.380Z,79.43
2019-05-22T19:11:41.409Z,78.88
2019-05-22T19:16:48.923Z,79.16
2019-05-22T19:21:56.444Z,79.20
2019-05-22T19:27:03.985Z,79.12
2019-05-22T19:32:11.528Z,79.15
2019-05-22T19:37:20.035Z,79.58
2019-05-22T19:42:27.582Z,79.18
2019-05-22T19:47:35.353Z,79.84
2019-05-22T19:52:44.673Z,79.94
2019-05-22T19:57:52.648Z,79.39
2019-05-22T20:03:00.320Z,78.54
2019-05-22T20:08:10.521Z,78.33
2019-05-22T20:13:21.015Z,79.00
2019-05-22T20:18:28.993Z,77.42
2019-05-22T20:23:37.107Z,78.47
2019-05-22T20:28:44.601Z,78.34
2019-05-22T20:33:52.525Z,77.19
2019-05-22T20:39:01.518Z,77.32
2019-05-22T20:44:11.723Z,76.94
2019-05-22T20:49:20.064Z,77.49
2019-05-22T20:54:28.689Z,74.84
2019-05-22T20:59:36.399Z,77.16
2019-05-22T21:04:46.132Z,76.79
2019-05-22T21:09:54.360Z,74.51
2019-05-22T21:15:02.175Z,77.64
2019-05-22T21:20:13.935Z,77.70
2019-05-22T21:25:21.777Z,78.10
2019-05-22T21:30:30.177Z,77.76
2019-05-22T21:35:39.205Z,77.58
2019-05-22T21:40:46.623Z,77.36
2019-05-22T21:45:54.411Z,77.21
2019-05-22T21:51:01.907Z,77.12
2019-05-22T21:56:09.986Z,75.58
2019-05-22T22:01:26.105Z,77.45
2019-05-22T22:06:34.931Z,76.13
2019-05-22T22:11:44.029Z,75.59
2019-05-22T22:16:51.554Z,76.82
2019-05-22T22:21:59.603Z,77.21
2019-05-22T22:27:07.882Z,77.12
2019-05-22T22:32:17.565Z,77.87
2019-05-22T22:37:26.685Z,77.66
2019-05-22T22:42:36.940Z,77.40
2019-05-22T22:47:45.596Z,77.53
2019-05-22T22:52:53.086Z,77.79
2019-05-22T22:58:16.078Z,77.53
2019-05-22T23:03:14.619Z,77.28
2019-05-22T23:08:29.427Z,76.45
2019-05-22T23:13:37.622Z,76.58
2019-05-22T23:19:36.135Z,77.71
2019-05-22T23:24:43.945Z,77.76
2019-05-22T23:29:52.264Z,75.80
2019-05-22T23:35:01.366Z,75.69
2019-05-22T23:40:11.433Z,76.26
2019-05-22T23:45:22.221Z,76.96
2019-05-22T23:50:31.746Z,77.25
2019-05-22T23:55:41.162Z,76.42
